Time;durP1;ratioP1;P1;durP2;ratioP2;P2;SDS_P1;SDS_P2;PMS_P1;PMS_P2;Temp;Humidity;BMP_temperature;BMP_pressure;BME280_temperature;BME280_humidity;BME280_pressure;Samples;Min_cycle;Max_cycle;Signal;HPM_P1;HPM_P2
2021/06/01 00:00:53;;;;;;;9.5;5.5;;;;;;;4.96;100;98883.73;;;;
2021/06/01 00:10:51;;;;;;;6.6;4.3;;;;;;;4.84;100;98883.95;;;;
2021/06/01 00:20:51;;;;;;;16.9;6.1;;;;;;;4.76;100;98879.11;;;;
2021/06/01 00:30:48;;;;;;;7.7;5.1;;;;;;;4.66;100;98895.09;;;;
2021/06/01 00:40:46;;;;;;;10.2;7.2;;;;;;;4.53;100;98879.58;;;;
2021/06/01 00:50:44;;;;;;;12;8.9;;;;;;;4.44;100;98887.27;;;;
2021/06/01 01:10:40;;;;;;;9.2;7;;;;;;;4.35;100;98893.36;;;;
2021/06/01 01:20:38;;;;;;;10;6;;;;;;;4.21;100;98878.88;;;;
2021/06/01 01:30:36;;;;;;;17.2;8.7;;;;;;;4.15;100;98883.39;;;;
2021/06/01 01:40:34;;;;;;;7;5.9;;;;;;;4.02;100;98874;;;;
2021/06/01 01:50:32;;;;;;;9.2;6.9;;;;;;;3.99;100;98873.7;;;;
2021/06/01 02:20:26;;;;;;;11;7.1;;;;;;;3.88;100;98874.7;;;;
2021/06/01 02:30:24;;;;;;;13.5;9.4;;;;;;;3.93;100;98872.85;;;;
2021/06/01 02:40:22;;;;;;;12.2;8.2;;;;;;;4.24;100;98879.16;;;;
2021/06/01 02:50:20;;;;;;;13.4;9.7;;;;;;;4.49;100;98873.95;;;;
2021/06/01 03:00:18;;;;;;;12.1;8.6;;;;;;;4.62;100;98877.22;;;;
2021/06/01 03:10:17;;;;;;;12.5;7.6;;;;;;;4.73;100;98873.49;;;;
2021/06/01 03:20:14;;;;;;;11.8;8.4;;;;;;;4.85;100;98871.41;;;;
2021/06/01 03:30:12;;;;;;;14.2;9.1;;;;;;;5.15;100;98876;;;;
2021/06/01 03:40:10;;;;;;;10.6;8.2;;;;;;;5.61;100;98864.28;;;;
2021/06/01 03:50:08;;;;;;;10.9;8.2;;;;;;;5.97;100;98868.53;;;;
2021/06/01 04:00:06;;;;;;;9;6.1;;;;;;;6.32;100;98864.16;;;;
2021/06/01 04:10:05;;;;;;;17.4;8.4;;;;;;;6.75;100;98870.7;;;;
2021/06/01 04:20:03;;;;;;;10.5;7.9;;;;;;;7.11;100;98873.99;;;;
2021/06/01 04:30:01;;;;;;;9.1;7.6;;;;;;;7.59;100;98881.16;;;;
2021/06/01 04:39:59;;;;;;;11;7.3;;;;;;;8.19;100;98887.05;;;;
2021/06/01 04:49:59;;;;;;;10.3;6.4;;;;;;;8.71;100;98881.63;;;;
2021/06/01 04:59:56;;;;;;;11.3;5.8;;;;;;;9.22;100;98895.2;;;;
2021/06/01 05:10:00;;;;;;;12.3;7.7;;;;;;;9.5;100;98896.14;;;;
2021/06/01 05:19:53;;;;;;;9.9;7.3;;;;;;;9.71;100;98888.55;;;;
2021/06/01 05:29:55;;;;;;;14.3;8.9;;;;;;;10.02;100;98876.97;;;;
2021/06/01 05:39:51;;;;;;;12;9.2;;;;;;;10.44;100;98896.7;;;;
2021/06/01 05:49:49;;;;;;;15.7;10.1;;;;;;;10.65;100;98889.83;;;;
2021/06/01 05:59:48;;;;;;;18.6;8.8;;;;;;;10.94;100;98897.56;;;;
2021/06/01 06:09:47;;;;;;;12.9;9.8;;;;;;;11.17;100;98909.23;;;;
2021/06/01 06:19:46;;;;;;;10.4;8.8;;;;;;;11.72;100;98917.98;;;;
2021/06/01 06:29:45;;;;;;;15.1;10.2;;;;;;;12.62;100;98906.73;;;;
2021/06/01 06:39:44;;;;;;;15.4;10.3;;;;;;;13.16;100;98910.86;;;;
2021/06/01 06:49:43;;;;;;;13.2;9.1;;;;;;;13.54;100;98911.05;;;;
2021/06/01 06:59:42;;;;;;;11.7;8.8;;;;;;;14.04;93.64063;98906.72;;;;
2021/06/01 07:09:42;;;;;;;10;7.3;;;;;;;14.99;95.93848;98909.1;;;;
2021/06/01 07:19:42;;;;;;;15.4;6.2;;;;;;;15.27;87.62891;98903.97;;;;
2021/06/01 07:29:40;;;;;;;20;9;;;;;;;15.19;85.94336;98894.75;;;;
2021/06/01 07:39:40;;;;;;;8;5.9;;;;;;;15.83;79.42188;98891.69;;;;
2021/06/01 07:49:39;;;;;;;7;3.8;;;;;;;15.73;81.30762;98889.39;;;;
2021/06/01 07:59:39;;;;;;;8.9;4.1;;;;;;;15.92;78.1709;98887.78;;;;
2021/06/01 08:09:38;;;;;;;10.3;4.8;;;;;;;16.31;80.90039;98880.17;;;;
2021/06/01 08:19:40;;;;;;;7.3;4.1;;;;;;;16.4;75.5332;98883.58;;;;
2021/06/01 08:29:37;;;;;;;7.3;3.7;;;;;;;17.07;62.19336;98888.5;;;;
2021/06/01 08:39:37;;;;;;;6.9;3.1;;;;;;;16.88;57.18457;98877.38;;;;
2021/06/01 08:49:37;;;;;;;5.8;3;;;;;;;18.03;55.79785;98871.05;;;;
2021/06/01 08:59:36;;;;;;;13.8;3.1;;;;;;;17.97;40.07129;98863.47;;;;
2021/06/01 09:09:45;;;;;;;7.2;3;;;;;;;17.76;44.24805;98871.87;;;;
2021/06/01 09:29:36;;;;;;;8.9;3.7;;;;;;;17.93;51.52246;98865.3;;;;
2021/06/01 09:39:35;;;;;;;6.9;4;;;;;;;18.12;48.70801;98861.92;;;;
2021/06/01 09:49:35;;;;;;;8.5;5;;;;;;;17.82;49.15039;98859.56;;;;
2021/06/01 09:59:35;;;;;;;5.5;3.5;;;;;;;18.16;50.98145;98846.41;;;;
2021/06/01 10:09:35;;;;;;;5.1;3.6;;;;;;;18.47;49.97461;98846.42;;;;
2021/06/01 10:19:34;;;;;;;6.4;3.2;;;;;;;18.96;54.15527;98833.97;;;;
2021/06/01 10:29:34;;;;;;;5.3;2.7;;;;;;;19.41;47.51465;98835.34;;;;
2021/06/01 11:01:49;;;;;;;5.1;2.3;;;;;;;19.83;39.30762;98818.97;;;;
2021/06/01 11:09:36;;;;;;;6;2.7;;;;;;;20.06;40.28418;98830.75;;;;
2021/06/01 11:19:34;;;;;;;4;2;;;;;;;20.22;39.44727;98820.47;;;;
2021/06/01 11:39:48;;;;;;;8.7;2.4;;;;;;;20.75;40.96484;98804.13;;;;
2021/06/01 12:19:35;;;;;;;4.6;2.4;;;;;;;20.99;34.46484;98787.25;;;;
2021/06/01 13:12:02;;;;;;;5.4;1.8;;;;;;;20.87;35.55566;98769.07;;;;
2021/06/01 13:19:38;;;;;;;7.9;2.4;;;;;;;21.35;36.92773;98774.79;;;;
2021/06/01 13:39:42;;;;;;;5.8;2.2;;;;;;;21.86;37.05176;98770.27;;;;
2021/06/01 13:49:39;;;;;;;4.5;1.8;;;;;;;20.65;34.00586;98764.48;;;;
2021/06/01 14:09:44;;;;;;;5.2;2.2;;;;;;;21.75;37.76758;98763.09;;;;
2021/06/01 14:19:58;;;;;;;5.6;1.9;;;;;;;20.78;40.96777;98762.3;;;;
2021/06/01 14:29:49;;;;;;;4.9;2;;;;;;;22.56;39.47949;98756.34;;;;
2021/06/01 14:40:23;;;;;;;5.4;2.1;;;;;;;21.64;34.93652;98751.22;;;;
2021/06/01 15:49:43;;;;;;;3.6;1.5;;;;;;;27.67;25.68359;98732.11;;;;
2021/06/01 17:20:06;;;;;;;4.9;2;;;;;;;22.11;31.00684;98737.56;;;;
2021/06/01 17:39:53;;;;;;;8.5;2.6;;;;;;;19.52;35.54004;98737.92;;;;
2021/06/01 17:49:53;;;;;;;4.6;2.6;;;;;;;18.55;37.70703;98733.57;;;;
2021/06/01 17:59:52;;;;;;;4.7;3;;;;;;;17.43;40.9502;98746.71;;;;
2021/06/01 19:00:18;;;;;;;8.1;5.2;;;;;;;12.85;61.30469;98797.32;;;;
2021/06/01 19:49:58;;;;;;;9.5;5.2;;;;;;;11.16;69.76465;98850.98;;;;
2021/06/01 19:59:40;;;;;;;8.2;5.3;;;;;;;10.81;72.52441;98844.47;;;;
2021/06/01 20:09:39;;;;;;;8.9;4.8;;;;;;;10.77;74.23438;98844.27;;;;
2021/06/01 20:19:37;;;;;;;7.3;5.1;;;;;;;10.71;75.14063;98845.48;;;;
2021/06/01 20:29:37;;;;;;;12.1;6.2;;;;;;;10.57;76.8877;98855.48;;;;
2021/06/01 20:39:35;;;;;;;7.5;5.6;;;;;;;10.44;77.33789;98856.28;;;;
2021/06/01 20:49:33;;;;;;;8.1;5.7;;;;;;;10.31;76.98828;98859.78;;;;
2021/06/01 20:59:32;;;;;;;14.1;7.3;;;;;;;10.15;78.78418;98853.06;;;;
2021/06/01 21:09:30;;;;;;;10.1;6.2;;;;;;;9.95;78.625;98855.02;;;;
2021/06/01 21:19:29;;;;;;;11.7;6.7;;;;;;;9.84;78.16699;98860.86;;;;
2021/06/01 21:29:27;;;;;;;11.9;6.5;;;;;;;9.8;79.67969;98855.27;;;;
2021/06/01 21:39:26;;;;;;;9.3;5.8;;;;;;;9.75;79.84961;98858.07;;;;
2021/06/01 21:49:24;;;;;;;8.6;4.3;;;;;;;9.59;78.39355;98870.96;;;;
2021/06/01 21:59:23;;;;;;;10.7;7.3;;;;;;;9.29;84.0459;98889.46;;;;
2021/06/01 22:09:21;;;;;;;11.7;7.5;;;;;;;8.91;94.43066;98896.71;;;;
2021/06/01 22:19:20;;;;;;;16.1;8.9;;;;;;;8.62;91.08301;98896.8;;;;
2021/06/01 22:29:18;;;;;;;10.5;7.9;;;;;;;8.3;91.91895;98899.3;;;;
2021/06/01 22:39:17;;;;;;;11.1;8.6;;;;;;;7.99;95.22656;98896.89;;;;
2021/06/01 22:49:15;;;;;;;10.1;7.5;;;;;;;7.72;97.68457;98904.64;;;;
2021/06/01 22:59:15;;;;;;;11;8.5;;;;;;;7.5;98.22656;98905.08;;;;
2021/06/01 23:09:12;;;;;;;12.8;8.6;;;;;;;7.29;98.96777;98905.52;;;;
2021/06/01 23:19:09;;;;;;;18.5;10.7;;;;;;;7.13;100;98903.98;;;;
2021/06/01 23:29:08;;;;;;;22;12.8;;;;;;;7.01;100;98921.19;;;;
2021/06/01 23:39:06;;;;;;;16.7;13;;;;;;;6.86;100;98929.32;;;;
2021/06/01 23:59:02;;;;;;;18.9;13.8;;;;;;;6.57;100;98937.19;;;;
